LGL25EB ELLX-LOWI
Flight info
| Callsign | LGL25EB |
|---|---|
| Flight time | 0h 58m |
| Altitude | 25000 |
| Route | GTQ2Q GTQ V17 LUPEN Y711 NATOR DCT UTABA M738 MADEB MADEB1B |
| Aircraft | DH8D/M-SDE2E3FGRY/H |
Departure
| Time | 2026-05-04 16:28 |
|---|---|
| Airport | Luxembourg-Findel International Airport (ELLX) |
Arrival
| Time | 2026-05-04 17:27 |
|---|---|
| Airport | Innsbruck Airport (LOWI) |
| Time | Latitude | Longitude | Altitude | Speed | Heading |
|---|---|---|---|---|---|
| 2026-05-04 16:10 | 49.63232 | 6.21775 | 1230 ft | 0 kts | 60° |
| 2026-05-04 16:26 | 49.63243 | 6.21853 | 1227 ft | 10 kts | 129° |
| 2026-05-04 16:26 | 49.63165 | 6.22032 | 1219 ft | 7 kts | 146° |
| 2026-05-04 16:27 | 49.63057 | 6.22130 | 1213 ft | 9 kts | 150° |
| 2026-05-04 16:28 | 49.62538 | 6.20865 | 1228 ft | 140 kts | 239° |
| 2026-05-04 16:28 | 49.60937 | 6.16806 | 2963 ft | 152 kts | 222° |
| 2026-05-04 16:29 | 49.56628 | 6.17383 | 5106 ft | 187 kts | 155° |
| 2026-05-04 16:30 | 49.53394 | 6.20475 | 7013 ft | 190 kts | 154° |
| 2026-05-04 16:31 | 49.51398 | 6.23126 | 8272 ft | 196 kts | 141° |
| 2026-05-04 16:31 | 49.48154 | 6.26825 | 10028 ft | 196 kts | 159° |
| 2026-05-04 16:32 | 49.44343 | 6.29472 | 11631 ft | 206 kts | 160° |
| 2026-05-04 16:33 | 49.41708 | 6.31294 | 12644 ft | 211 kts | 160° |
| 2026-05-04 16:33 | 49.38816 | 6.32715 | 13049 ft | 234 kts | 186° |
| 2026-05-04 16:34 | 49.35628 | 6.33673 | 13766 ft | 251 kts | 150° |
| 2026-05-04 16:34 | 49.34184 | 6.35137 | 14222 ft | 252 kts | 152° |
| 2026-05-04 16:35 | 49.29596 | 6.39100 | 15485 ft | 256 kts | 156° |
| 2026-05-04 16:35 | 49.24771 | 6.42736 | 16689 ft | 260 kts | 158° |
| 2026-05-04 16:36 | 49.23147 | 6.43910 | 17067 ft | 262 kts | 159° |
| 2026-05-04 16:36 | 49.20035 | 6.46945 | 17803 ft | 269 kts | 146° |
| 2026-05-04 16:37 | 49.17051 | 6.50451 | 18494 ft | 272 kts | 146° |
| 2026-05-04 16:37 | 49.15555 | 6.52197 | 18859 ft | 272 kts | 147° |
| 2026-05-04 16:37 | 49.12504 | 6.55720 | 19414 ft | 278 kts | 147° |
| 2026-05-04 16:38 | 49.09453 | 6.59230 | 20180 ft | 276 kts | 147° |
| 2026-05-04 16:39 | 49.04842 | 6.64498 | 20992 ft | 278 kts | 147° |
| 2026-05-04 16:39 | 49.01760 | 6.68013 | 21495 ft | 278 kts | 148° |
| 2026-05-04 16:40 | 48.98635 | 6.71482 | 21897 ft | 278 kts | 154° |
| 2026-05-04 16:40 | 48.95114 | 6.73735 | 22296 ft | 276 kts | 163° |
| 2026-05-04 16:41 | 48.91511 | 6.75839 | 22663 ft | 277 kts | 162° |
| 2026-05-04 16:41 | 48.86099 | 6.79012 | 23180 ft | 279 kts | 162° |
| 2026-05-04 16:42 | 48.80633 | 6.82229 | 23644 ft | 281 kts | 162° |
| 2026-05-04 16:43 | 48.76992 | 6.84375 | 23977 ft | 280 kts | 162° |
| 2026-05-04 16:43 | 48.73327 | 6.86529 | 24208 ft | 281 kts | 163° |
| 2026-05-04 16:43 | 48.71510 | 6.87595 | 24302 ft | 283 kts | 162° |
| 2026-05-04 16:44 | 48.64131 | 6.91916 | 24799 ft | 284 kts | 162° |
| 2026-05-04 16:45 | 48.60450 | 6.94069 | 24959 ft | 285 kts | 162° |
| 2026-05-04 16:46 | 48.54776 | 6.97378 | 24987 ft | 294 kts | 162° |
| 2026-05-04 16:46 | 48.50928 | 6.99620 | 24977 ft | 299 kts | 162° |
| 2026-05-04 16:47 | 48.47499 | 7.03072 | 24983 ft | 312 kts | 125° |
| 2026-05-04 16:47 | 48.46664 | 7.09596 | 24987 ft | 326 kts | 99° |
| 2026-05-04 16:48 | 48.46164 | 7.19851 | 24989 ft | 331 kts | 98° |
| 2026-05-04 16:48 | 48.45995 | 7.23316 | 24989 ft | 332 kts | 98° |
| 2026-05-04 16:49 | 48.45663 | 7.30269 | 24988 ft | 334 kts | 98° |
| 2026-05-04 16:49 | 48.45321 | 7.37299 | 24993 ft | 335 kts | 98° |
| 2026-05-04 16:50 | 48.44975 | 7.44263 | 24995 ft | 335 kts | 98° |
| 2026-05-04 16:50 | 48.44618 | 7.51332 | 24994 ft | 336 kts | 98° |
| 2026-05-04 16:51 | 48.44259 | 7.58360 | 24995 ft | 337 kts | 98° |
| 2026-05-04 16:51 | 48.44074 | 7.61922 | 24989 ft | 338 kts | 98° |
| 2026-05-04 16:51 | 48.43708 | 7.68955 | 24995 ft | 337 kts | 99° |
| 2026-05-04 16:52 | 48.42457 | 7.75542 | 25020 ft | 320 kts | 128° |
| 2026-05-04 16:52 | 48.41201 | 7.78293 | 25001 ft | 321 kts | 129° |
| 2026-05-04 16:53 | 48.38639 | 7.83816 | 24991 ft | 321 kts | 130° |
| 2026-05-04 16:53 | 48.34822 | 7.92163 | 25001 ft | 321 kts | 128° |
| 2026-05-04 16:54 | 48.33596 | 7.94978 | 25006 ft | 321 kts | 128° |
| 2026-05-04 16:55 | 48.28631 | 8.06311 | 25001 ft | 322 kts | 128° |
| 2026-05-04 16:55 | 48.26165 | 8.11907 | 24995 ft | 324 kts | 128° |
| 2026-05-04 16:56 | 48.23653 | 8.17569 | 24994 ft | 325 kts | 129° |
| 2026-05-04 16:56 | 48.19815 | 8.25936 | 24991 ft | 324 kts | 129° |
| 2026-05-04 16:57 | 48.18524 | 8.28747 | 25000 ft | 324 kts | 129° |
| 2026-05-04 16:57 | 48.17192 | 8.35167 | 25014 ft | 338 kts | 89° |
| 2026-05-04 16:58 | 48.18019 | 8.45738 | 24983 ft | 341 kts | 86° |
| 2026-05-04 16:58 | 48.18301 | 8.49241 | 24988 ft | 342 kts | 86° |
| 2026-05-04 16:59 | 48.18860 | 8.56317 | 24978 ft | 341 kts | 86° |
| 2026-05-04 17:00 | 48.19958 | 8.70509 | 24981 ft | 342 kts | 87° |
| 2026-05-04 17:00 | 48.20765 | 8.81137 | 24972 ft | 344 kts | 87° |
| 2026-05-04 17:01 | 48.21300 | 8.88258 | 24974 ft | 343 kts | 86° |
| 2026-05-04 17:01 | 48.21828 | 8.95335 | 24975 ft | 343 kts | 86° |
| 2026-05-04 17:02 | 48.22351 | 9.02442 | 24979 ft | 344 kts | 86° |
| 2026-05-04 17:02 | 48.22869 | 9.09540 | 24979 ft | 343 kts | 86° |
| 2026-05-04 17:03 | 48.23128 | 9.13110 | 24980 ft | 343 kts | 86° |
| 2026-05-04 17:03 | 48.23385 | 9.16670 | 24979 ft | 344 kts | 86° |
| 2026-05-04 17:03 | 48.23897 | 9.23819 | 24979 ft | 344 kts | 86° |
| 2026-05-04 17:04 | 48.24404 | 9.30955 | 24976 ft | 345 kts | 86° |
| 2026-05-04 17:04 | 48.24907 | 9.38091 | 24974 ft | 345 kts | 86° |
| 2026-05-04 17:05 | 48.23904 | 9.44705 | 24958 ft | 324 kts | 134° |
| 2026-05-04 17:05 | 48.20107 | 9.47796 | 24963 ft | 311 kts | 163° |
| 2026-05-04 17:06 | 48.16016 | 9.49886 | 24954 ft | 311 kts | 165° |
| 2026-05-04 17:06 | 48.13934 | 9.50885 | 24956 ft | 311 kts | 166° |
| 2026-05-04 17:07 | 48.09780 | 9.52805 | 24957 ft | 311 kts | 166° |
| 2026-05-04 17:07 | 48.08423 | 9.53419 | 24957 ft | 311 kts | 166° |
| 2026-05-04 17:07 | 48.05628 | 9.54666 | 24958 ft | 312 kts | 167° |
| 2026-05-04 17:07 | 48.03542 | 9.55587 | 24957 ft | 311 kts | 167° |
| 2026-05-04 17:08 | 48.01530 | 9.56726 | 24942 ft | 317 kts | 154° |
| 2026-05-04 17:08 | 47.97913 | 9.60556 | 24961 ft | 320 kts | 147° |
| 2026-05-04 17:08 | 47.96124 | 9.62521 | 24970 ft | 319 kts | 147° |
| 2026-05-04 17:09 | 47.94311 | 9.64504 | 24966 ft | 320 kts | 147° |
| 2026-05-04 17:09 | 47.92518 | 9.66460 | 24968 ft | 319 kts | 148° |
| 2026-05-04 17:09 | 47.90725 | 9.68407 | 24966 ft | 319 kts | 148° |
| 2026-05-04 17:10 | 47.87148 | 9.72279 | 24955 ft | 320 kts | 148° |
| 2026-05-04 17:10 | 47.81709 | 9.78139 | 24961 ft | 321 kts | 148° |
| 2026-05-04 17:11 | 47.79895 | 9.80086 | 24748 ft | 328 kts | 148° |
| 2026-05-04 17:11 | 47.78019 | 9.82098 | 24454 ft | 334 kts | 148° |
| 2026-05-04 17:11 | 47.74207 | 9.86185 | 23804 ft | 342 kts | 148° |
| 2026-05-04 17:12 | 47.72262 | 9.88268 | 23479 ft | 344 kts | 148° |
| 2026-05-04 17:12 | 47.68350 | 9.92447 | 22799 ft | 351 kts | 148° |
| 2026-05-04 17:13 | 47.62414 | 9.98778 | 21799 ft | 348 kts | 147° |
| 2026-05-04 17:14 | 47.57140 | 10.04387 | 20916 ft | 344 kts | 147° |
| 2026-05-04 17:14 | 47.55212 | 10.06433 | 20592 ft | 342 kts | 148° |
| 2026-05-04 17:14 | 47.51445 | 10.10728 | 19890 ft | 344 kts | 135° |
| 2026-05-04 17:15 | 47.50208 | 10.13718 | 19471 ft | 338 kts | 119° |
| 2026-05-04 17:15 | 47.48220 | 10.19930 | 18740 ft | 331 kts | 117° |
| 2026-05-04 17:16 | 47.46287 | 10.26090 | 17820 ft | 332 kts | 117° |
| 2026-05-04 17:16 | 47.43379 | 10.35402 | 16469 ft | 334 kts | 117° |
| 2026-05-04 17:17 | 47.42407 | 10.38519 | 16012 ft | 334 kts | 117° |
| 2026-05-04 17:17 | 47.39517 | 10.47782 | 14663 ft | 330 kts | 117° |
| 2026-05-04 17:18 | 47.38575 | 10.50802 | 14230 ft | 327 kts | 117° |
| 2026-05-04 17:18 | 47.36718 | 10.56746 | 13722 ft | 312 kts | 117° |
| 2026-05-04 17:19 | 47.34901 | 10.62540 | 12861 ft | 312 kts | 116° |
| 2026-05-04 17:19 | 47.33100 | 10.68271 | 11998 ft | 309 kts | 117° |
| 2026-05-04 17:20 | 47.31288 | 10.74023 | 11120 ft | 307 kts | 116° |
| 2026-05-04 17:20 | 47.29630 | 10.79712 | 10501 ft | 300 kts | 105° |
| 2026-05-04 17:20 | 47.29551 | 10.82738 | 10514 ft | 296 kts | 89° |
| 2026-05-04 17:21 | 47.29785 | 10.88847 | 9869 ft | 299 kts | 89° |
| 2026-05-04 17:21 | 47.30029 | 10.94759 | 8775 ft | 285 kts | 88° |
| 2026-05-04 17:22 | 47.30144 | 10.97667 | 8238 ft | 278 kts | 88° |
| 2026-05-04 17:22 | 47.30249 | 11.00439 | 7788 ft | 268 kts | 88° |
| 2026-05-04 17:23 | 47.30092 | 11.08062 | 6643 ft | 235 kts | 105° |
| 2026-05-04 17:23 | 47.29561 | 11.10302 | 6282 ft | 224 kts | 114° |
| 2026-05-04 17:23 | 47.28536 | 11.14534 | 5391 ft | 217 kts | 107° |
| 2026-05-04 17:24 | 47.28093 | 11.16617 | 5145 ft | 206 kts | 110° |
| 2026-05-04 17:24 | 47.26642 | 11.21867 | 4012 ft | 162 kts | 111° |
| 2026-05-04 17:25 | 47.26295 | 11.23386 | 3685 ft | 149 kts | 109° |
| 2026-05-04 17:25 | 47.25806 | 11.26054 | 3051 ft | 134 kts | 106° |
| 2026-05-04 17:26 | 47.25487 | 11.28704 | 2537 ft | 130 kts | 95° |
| 2026-05-04 17:26 | 47.25848 | 11.32786 | 2050 ft | 131 kts | 83° |
| 2026-05-04 17:27 | 47.26051 | 11.34685 | 1924 ft | 40 kts | 82° |
| 2026-05-04 17:27 | 47.26098 | 11.35126 | 1922 ft | 15 kts | 82° |
| 2026-05-04 17:28 | 47.26031 | 11.35265 | 1921 ft | 5 kts | 173° |
| 2026-05-04 17:29 | 47.25894 | 11.35219 | 1921 ft | 6 kts | 260° |
| 2026-05-04 17:29 | 47.25840 | 11.35178 | 1921 ft | 0 kts | 171° |